sensor_id;sensor_type;location;lat;lon;timestamp;pressure;altitude;pressure_sealevel;temperature;humidity
62510;BME280;48558;48.242;11.654;2022-10-13T00:01:36;96803.38;;;7.39;100.00
62510;BME280;48558;48.242;11.654;2022-10-13T00:05:49;96788.44;;;7.40;100.00
62510;BME280;48558;48.242;11.654;2022-10-13T00:10:02;96794.97;;;7.46;100.00
62510;BME280;48558;48.242;11.654;2022-10-13T00:14:15;96790.94;;;7.35;100.00
62510;BME280;48558;48.242;11.654;2022-10-13T00:18:27;96784.81;;;7.27;100.00
62510;BME280;48558;48.242;11.654;2022-10-13T00:22:40;96784.31;;;7.32;100.00
62510;BME280;48558;48.242;11.654;2022-10-13T00:26:52;96782.50;;;7.26;100.00
62510;BME280;48558;48.242;11.654;2022-10-13T00:31:39;96782.69;;;7.18;100.00
62510;BME280;48558;48.242;11.654;2022-10-13T00:35:52;96783.09;;;7.17;100.00
62510;BME280;48558;48.242;11.654;2022-10-13T00:40:05;96794.69;;;7.24;100.00
62510;BME280;48558;48.242;11.654;2022-10-13T00:49:12;96784.66;;;7.18;100.00
62510;BME280;48558;48.242;11.654;2022-10-13T00:53:31;96782.41;;;7.13;100.00
62510;BME280;48558;48.242;11.654;2022-10-13T00:57:47;96784.03;;;7.10;100.00
62510;BME280;48558;48.242;11.654;2022-10-13T01:02:05;96789.97;;;7.09;100.00
62510;BME280;48558;48.242;11.654;2022-10-13T01:06:28;96783.34;;;7.06;100.00
62510;BME280;48558;48.242;11.654;2022-10-13T01:10:47;96786.38;;;7.12;100.00
62510;BME280;48558;48.242;11.654;2022-10-13T01:15:16;96790.31;;;7.11;100.00
62510;BME280;48558;48.242;11.654;2022-10-13T01:24:25;96801.63;;;6.97;100.00
62510;BME280;48558;48.242;11.654;2022-10-13T01:33:37;96778.59;;;6.91;100.00
62510;BME280;48558;48.242;11.654;2022-10-13T01:42:22;96783.31;;;6.90;100.00
62510;BME280;48558;48.242;11.654;2022-10-13T01:46:37;96779.78;;;6.90;100.00
62510;BME280;48558;48.242;11.654;2022-10-13T01:50:51;96786.31;;;6.80;100.00
62510;BME280;48558;48.242;11.654;2022-10-13T01:55:10;96784.91;;;6.72;100.00
62510;BME280;48558;48.242;11.654;2022-10-13T01:59:24;96773.31;;;6.64;100.00
62510;BME280;48558;48.242;11.654;2022-10-13T02:03:57;96775.56;;;6.69;100.00
62510;BME280;48558;48.242;11.654;2022-10-13T02:08:21;96790.56;;;6.65;100.00
62510;BME280;48558;48.242;11.654;2022-10-13T02:12:43;96795.00;;;6.59;100.00
62510;BME280;48558;48.242;11.654;2022-10-13T02:17:01;96788.72;;;6.58;100.00
62510;BME280;48558;48.242;11.654;2022-10-13T02:21:16;96787.19;;;6.57;100.00
62510;BME280;48558;48.242;11.654;2022-10-13T02:25:29;96786.50;;;6.53;100.00
62510;BME280;48558;48.242;11.654;2022-10-13T02:29:53;96782.97;;;6.53;100.00
62510;BME280;48558;48.242;11.654;2022-10-13T02:34:06;96789.94;;;6.57;100.00
62510;BME280;48558;48.242;11.654;2022-10-13T02:38:19;96779.66;;;6.61;100.00
62510;BME280;48558;48.242;11.654;2022-10-13T02:42:31;96777.34;;;6.60;100.00
62510;BME280;48558;48.242;11.654;2022-10-13T02:46:43;96775.03;;;6.74;100.00
62510;BME280;48558;48.242;11.654;2022-10-13T02:50:56;96770.88;;;7.02;100.00
62510;BME280;48558;48.242;11.654;2022-10-13T02:55:08;96779.66;;;7.13;100.00
62510;BME280;48558;48.242;11.654;2022-10-13T02:59:21;96773.06;;;7.27;100.00
62510;BME280;48558;48.242;11.654;2022-10-13T03:03:34;96783.97;;;7.30;100.00
62510;BME280;48558;48.242;11.654;2022-10-13T03:07:46;96772.19;;;7.46;100.00
62510;BME280;48558;48.242;11.654;2022-10-13T03:11:59;96780.09;;;7.44;100.00
62510;BME280;48558;48.242;11.654;2022-10-13T03:16:11;96765.25;;;7.41;100.00
62510;BME280;48558;48.242;11.654;2022-10-13T03:20:24;96756.81;;;7.48;100.00
62510;BME280;48558;48.242;11.654;2022-10-13T03:24:36;96768.66;;;7.45;100.00
62510;BME280;48558;48.242;11.654;2022-10-13T03:28:49;96760.94;;;7.40;100.00
62510;BME280;48558;48.242;11.654;2022-10-13T03:33:03;96757.00;;;7.41;100.00
62510;BME280;48558;48.242;11.654;2022-10-13T03:37:19;96759.41;;;7.39;100.00
62510;BME280;48558;48.242;11.654;2022-10-13T03:41:32;96760.44;;;7.29;100.00
62510;BME280;48558;48.242;11.654;2022-10-13T03:45:53;96766.03;;;7.26;100.00
62510;BME280;48558;48.242;11.654;2022-10-13T03:50:06;96771.25;;;7.36;100.00
62510;BME280;48558;48.242;11.654;2022-10-13T03:54:18;96774.84;;;7.33;100.00
62510;BME280;48558;48.242;11.654;2022-10-13T03:58:31;96780.44;;;7.30;100.00
62510;BME280;48558;48.242;11.654;2022-10-13T04:02:43;96781.31;;;7.43;100.00
62510;BME280;48558;48.242;11.654;2022-10-13T04:06:55;96788.53;;;7.53;100.00
62510;BME280;48558;48.242;11.654;2022-10-13T04:11:12;96779.66;;;7.61;100.00
62510;BME280;48558;48.242;11.654;2022-10-13T04:15:26;96777.06;;;7.70;100.00
62510;BME280;48558;48.242;11.654;2022-10-13T04:19:46;96779.09;;;7.82;100.00
62510;BME280;48558;48.242;11.654;2022-10-13T04:23:59;96782.16;;;8.01;100.00
62510;BME280;48558;48.242;11.654;2022-10-13T04:28:12;96784.81;;;8.04;100.00
62510;BME280;48558;48.242;11.654;2022-10-13T04:32:24;96788.72;;;8.19;100.00
62510;BME280;48558;48.242;11.654;2022-10-13T04:36:37;96783.47;;;8.25;100.00
62510;BME280;48558;48.242;11.654;2022-10-13T04:41:03;96773.53;;;8.43;100.00
62510;BME280;48558;48.242;11.654;2022-10-13T04:45:16;96780.63;;;8.57;100.00
62510;BME280;48558;48.242;11.654;2022-10-13T04:49:28;96776.72;;;8.42;100.00
62510;BME280;48558;48.242;11.654;2022-10-13T04:53:41;96777.75;;;8.48;100.00
62510;BME280;48558;48.242;11.654;2022-10-13T04:57:54;96781.94;;;8.52;100.00
62510;BME280;48558;48.242;11.654;2022-10-13T05:02:06;96769.28;;;8.68;100.00
62510;BME280;48558;48.242;11.654;2022-10-13T05:06:23;96775.38;;;8.75;100.00
62510;BME280;48558;48.242;11.654;2022-10-13T05:10:36;96775.91;;;8.70;100.00
62510;BME280;48558;48.242;11.654;2022-10-13T05:14:48;96772.59;;;8.75;100.00
62510;BME280;48558;48.242;11.654;2022-10-13T05:19:01;96773.28;;;8.79;100.00
62510;BME280;48558;48.242;11.654;2022-10-13T05:23:14;96774.50;;;8.91;100.00
62510;BME280;48558;48.242;11.654;2022-10-13T05:27:26;96774.38;;;8.94;100.00
62510;BME280;48558;48.242;11.654;2022-10-13T05:31:39;96770.06;;;9.06;100.00
62510;BME280;48558;48.242;11.654;2022-10-13T05:35:51;96758.47;;;9.23;100.00
62510;BME280;48558;48.242;11.654;2022-10-13T05:40:04;96769.28;;;9.30;100.00
62510;BME280;48558;48.242;11.654;2022-10-13T05:44:16;96771.50;;;9.23;100.00
62510;BME280;48558;48.242;11.654;2022-10-13T05:48:29;96779.41;;;9.46;100.00
62510;BME280;48558;48.242;11.654;2022-10-13T05:52:41;96767.06;;;9.51;100.00
62510;BME280;48558;48.242;11.654;2022-10-13T05:57:04;96768.25;;;9.62;100.00
62510;BME280;48558;48.242;11.654;2022-10-13T06:01:23;96775.16;;;9.79;100.00
62510;BME280;48558;48.242;11.654;2022-10-13T06:05:36;96764.16;;;10.01;100.00
62510;BME280;48558;48.242;11.654;2022-10-13T06:09:49;96763.81;;;10.12;100.00
62510;BME280;48558;48.242;11.654;2022-10-13T06:14:02;96763.25;;;10.17;100.00
62510;BME280;48558;48.242;11.654;2022-10-13T06:18:14;96755.03;;;10.26;100.00
62510;BME280;48558;48.242;11.654;2022-10-13T06:22:26;96768.66;;;10.42;100.00
62510;BME280;48558;48.242;11.654;2022-10-13T06:26:39;96767.22;;;10.59;100.00
62510;BME280;48558;48.242;11.654;2022-10-13T06:31:04;96760.66;;;10.65;100.00
62510;BME280;48558;48.242;11.654;2022-10-13T06:35:17;96773.34;;;10.85;100.00
62510;BME280;48558;48.242;11.654;2022-10-13T06:39:29;96775.75;;;11.04;100.00
62510;BME280;48558;48.242;11.654;2022-10-13T06:43:42;96774.56;;;11.14;100.00
62510;BME280;48558;48.242;11.654;2022-10-13T06:47:54;96764.47;;;11.29;100.00
62510;BME280;48558;48.242;11.654;2022-10-13T06:52:07;96766.47;;;11.29;100.00
62510;BME280;48558;48.242;11.654;2022-10-13T06:56:20;96774.06;;;11.37;100.00
62510;BME280;48558;48.242;11.654;2022-10-13T07:00:32;96772.53;;;11.45;100.00
62510;BME280;48558;48.242;11.654;2022-10-13T07:04:46;96773.13;;;11.40;100.00
62510;BME280;48558;48.242;11.654;2022-10-13T07:09:02;96777.31;;;11.54;100.00
62510;BME280;48558;48.242;11.654;2022-10-13T07:13:14;96758.44;;;11.62;100.00
62510;BME280;48558;48.242;11.654;2022-10-13T07:17:26;96768.03;;;11.97;100.00
62510;BME280;48558;48.242;11.654;2022-10-13T07:21:39;96771.09;;;11.81;100.00
62510;BME280;48558;48.242;11.654;2022-10-13T07:25:51;96765.13;;;12.09;100.00
62510;BME280;48558;48.242;11.654;2022-10-13T07:30:14;96774.19;;;12.28;100.00
62510;BME280;48558;48.242;11.654;2022-10-13T07:34:26;96760.19;;;12.41;100.00
62510;BME280;48558;48.242;11.654;2022-10-13T07:38:39;96766.19;;;12.48;100.00
62510;BME280;48558;48.242;11.654;2022-10-13T07:42:51;96765.53;;;12.71;100.00
62510;BME280;48558;48.242;11.654;2022-10-13T07:47:04;96761.84;;;12.65;100.00
62510;BME280;48558;48.242;11.654;2022-10-13T07:51:16;96762.66;;;12.98;100.00
62510;BME280;48558;48.242;11.654;2022-10-13T07:55:37;96761.75;;;13.02;100.00
62510;BME280;48558;48.242;11.654;2022-10-13T07:59:55;96755.63;;;13.30;100.00
62510;BME280;48558;48.242;11.654;2022-10-13T08:04:08;96760.59;;;13.59;100.00
62510;BME280;48558;48.242;11.654;2022-10-13T08:08:20;96751.69;;;13.79;100.00
62510;BME280;48558;48.242;11.654;2022-10-13T08:12:36;96738.72;;;13.99;100.00
62510;BME280;48558;48.242;11.654;2022-10-13T08:16:49;96733.56;;;14.07;100.00
62510;BME280;48558;48.242;11.654;2022-10-13T08:21:04;96741.56;;;14.28;100.00
62510;BME280;48558;48.242;11.654;2022-10-13T08:25:38;96733.50;;;14.83;100.00
62510;BME280;48558;48.242;11.654;2022-10-13T08:29:50;96749.72;;;14.85;100.00
62510;BME280;48558;48.242;11.654;2022-10-13T08:34:02;96750.84;;;14.49;100.00
62510;BME280;48558;48.242;11.654;2022-10-13T08:38:15;96760.63;;;14.59;100.00
62510;BME280;48558;48.242;11.654;2022-10-13T08:42:27;96743.47;;;14.61;100.00
62510;BME280;48558;48.242;11.654;2022-10-13T08:46:52;96748.09;;;14.78;100.00
62510;BME280;48558;48.242;11.654;2022-10-13T08:51:05;96750.94;;;14.98;100.00
62510;BME280;48558;48.242;11.654;2022-10-13T08:55:42;96748.03;;;15.22;100.00
62510;BME280;48558;48.242;11.654;2022-10-13T08:59:55;96737.31;;;15.64;100.00
62510;BME280;48558;48.242;11.654;2022-10-13T09:04:37;96730.91;;;15.78;100.00
62510;BME280;48558;48.242;11.654;2022-10-13T09:08:58;96735.91;;;16.35;100.00
62510;BME280;48558;48.242;11.654;2022-10-13T09:13:10;96721.81;;;16.70;100.00
62510;BME280;48558;48.242;11.654;2022-10-13T09:17:24;96725.19;;;17.05;100.00
62510;BME280;48558;48.242;11.654;2022-10-13T09:21:40;96729.31;;;17.15;100.00
62510;BME280;48558;48.242;11.654;2022-10-13T09:25:52;96716.72;;;17.25;100.00
62510;BME280;48558;48.242;11.654;2022-10-13T09:30:32;96713.56;;;17.49;100.00
62510;BME280;48558;48.242;11.654;2022-10-13T09:34:46;96715.94;;;17.56;100.00
62510;BME280;48558;48.242;11.654;2022-10-13T09:39:12;96708.63;;;17.33;100.00
62510;BME280;48558;48.242;11.654;2022-10-13T09:43:32;96708.31;;;17.56;100.00
62510;BME280;48558;48.242;11.654;2022-10-13T09:47:52;96707.38;;;17.70;100.00
62510;BME280;48558;48.242;11.654;2022-10-13T09:52:11;96708.47;;;17.10;100.00
62510;BME280;48558;48.242;11.654;2022-10-13T09:56:41;96709.75;;;17.09;100.00
62510;BME280;48558;48.242;11.654;2022-10-13T10:00:55;96700.03;;;16.74;100.00
62510;BME280;48558;48.242;11.654;2022-10-13T10:05:25;96701.66;;;17.11;100.00
62510;BME280;48558;48.242;11.654;2022-10-13T10:09:42;96692.44;;;17.37;100.00
62510;BME280;48558;48.242;11.654;2022-10-13T10:13:56;96702.31;;;17.38;100.00
62510;BME280;48558;48.242;11.654;2022-10-13T10:18:34;96707.19;;;17.85;100.00
62510;BME280;48558;48.242;11.654;2022-10-13T10:23:03;96705.28;;;16.92;100.00
62510;BME280;48558;48.242;11.654;2022-10-13T10:27:34;96707.34;;;17.28;100.00
62510;BME280;48558;48.242;11.654;2022-10-13T10:32:24;96702.75;;;18.21;100.00
62510;BME280;48558;48.242;11.654;2022-10-13T10:37:02;96697.56;;;17.91;100.00
62510;BME280;48558;48.242;11.654;2022-10-13T10:45:58;96682.72;;;18.33;96.20
62510;BME280;48558;48.242;11.654;2022-10-13T10:50:16;96687.47;;;18.11;100.00
62510;BME280;48558;48.242;11.654;2022-10-13T10:59:19;96672.50;;;18.19;100.00
62510;BME280;48558;48.242;11.654;2022-10-13T11:03:56;96667.78;;;18.70;93.55
62510;BME280;48558;48.242;11.654;2022-10-13T11:08:45;96664.75;;;18.90;94.90
62510;BME280;48558;48.242;11.654;2022-10-13T11:17:16;96644.81;;;18.43;86.93
62510;BME280;48558;48.242;11.654;2022-10-13T11:26:29;96633.66;;;18.54;98.31
62510;BME280;48558;48.242;11.654;2022-10-13T11:30:50;96632.63;;;19.35;89.25
62510;BME280;48558;48.242;11.654;2022-10-13T11:43:45;96615.56;;;20.42;74.08
62510;BME280;48558;48.242;11.654;2022-10-13T11:48:08;96618.78;;;20.17;77.15
62510;BME280;48558;48.242;11.654;2022-10-13T11:57:22;96603.59;;;19.05;82.11
62510;BME280;48558;48.242;11.654;2022-10-13T12:01:34;96601.63;;;18.72;81.03
62510;BME280;48558;48.242;11.654;2022-10-13T12:06:26;96592.69;;;18.57;85.38
62510;BME280;48558;48.242;11.654;2022-10-13T12:10:43;96578.63;;;19.23;93.28
62510;BME280;48558;48.242;11.654;2022-10-13T12:14:56;96571.56;;;18.73;90.01
62510;BME280;48558;48.242;11.654;2022-10-13T12:19:21;96561.66;;;18.66;92.73
62510;BME280;48558;48.242;11.654;2022-10-13T12:23:34;96568.75;;;18.95;91.83
62510;BME280;48558;48.242;11.654;2022-10-13T12:27:50;96574.38;;;18.61;90.94
62510;BME280;48558;48.242;11.654;2022-10-13T12:32:17;96562.88;;;18.98;85.55
62510;BME280;48558;48.242;11.654;2022-10-13T12:36:32;96556.47;;;19.09;86.25
62510;BME280;48558;48.242;11.654;2022-10-13T12:40:47;96567.13;;;19.44;88.08
62510;BME280;48558;48.242;11.654;2022-10-13T12:45:00;96559.50;;;19.33;82.49
62510;BME280;48558;48.242;11.654;2022-10-13T12:53:36;96552.03;;;20.04;82.29
62510;BME280;48558;48.242;11.654;2022-10-13T12:57:50;96552.22;;;19.71;84.31
62510;BME280;48558;48.242;11.654;2022-10-13T13:02:22;96545.97;;;19.94;77.86
62510;BME280;48558;48.242;11.654;2022-10-13T13:06:36;96548.94;;;19.61;85.21
62510;BME280;48558;48.242;11.654;2022-10-13T13:15:39;96545.56;;;19.11;92.32
62510;BME280;48558;48.242;11.654;2022-10-13T13:19:53;96532.41;;;19.52;95.64
62510;BME280;48558;48.242;11.654;2022-10-13T13:24:06;96534.25;;;19.39;89.70
62510;BME280;48558;48.242;11.654;2022-10-13T13:28:52;96526.63;;;19.45;88.30
62510;BME280;48558;48.242;11.654;2022-10-13T13:33:06;96527.34;;;19.45;89.79
62510;BME280;48558;48.242;11.654;2022-10-13T13:37:24;96526.56;;;19.50;90.33
62510;BME280;48558;48.242;11.654;2022-10-13T13:41:38;96518.22;;;19.28;91.29
62510;BME280;48558;48.242;11.654;2022-10-13T13:45:50;96513.91;;;19.27;90.85
62510;BME280;48558;48.242;11.654;2022-10-13T13:50:18;96506.41;;;19.52;88.64
62510;BME280;48558;48.242;11.654;2022-10-13T13:54:31;96514.50;;;19.03;92.52
62510;BME280;48558;48.242;11.654;2022-10-13T13:58:43;96498.03;;;18.44;94.40
62510;BME280;48558;48.242;11.654;2022-10-13T14:02:56;96499.06;;;18.41;97.96
62510;BME280;48558;48.242;11.654;2022-10-13T14:07:09;96498.31;;;18.24;99.80
62510;BME280;48558;48.242;11.654;2022-10-13T14:11:22;96492.22;;;18.20;100.00
62510;BME280;48558;48.242;11.654;2022-10-13T14:15:34;96491.44;;;18.20;100.00
62510;BME280;48558;48.242;11.654;2022-10-13T14:19:46;96505.16;;;18.01;100.00
62510;BME280;48558;48.242;11.654;2022-10-13T14:23:59;96495.75;;;18.10;100.00
62510;BME280;48558;48.242;11.654;2022-10-13T14:32:13;96493.22;;;17.84;100.00
62510;BME280;48558;48.242;11.654;2022-10-13T14:36:26;96486.84;;;17.95;100.00
62510;BME280;48558;48.242;11.654;2022-10-13T14:40:48;96482.56;;;18.05;100.00
62510;BME280;48558;48.242;11.654;2022-10-13T14:45:00;96487.09;;;17.85;100.00
62510;BME280;48558;48.242;11.654;2022-10-13T14:49:20;96489.16;;;17.90;100.00
62510;BME280;48558;48.242;11.654;2022-10-13T14:53:37;96480.00;;;17.90;100.00
62510;BME280;48558;48.242;11.654;2022-10-13T14:57:50;96469.47;;;17.46;100.00
62510;BME280;48558;48.242;11.654;2022-10-13T15:02:02;96481.38;;;17.36;100.00
62510;BME280;48558;48.242;11.654;2022-10-13T15:06:16;96482.84;;;17.26;100.00
62510;BME280;48558;48.242;11.654;2022-10-13T15:10:29;96479.06;;;17.29;100.00
62510;BME280;48558;48.242;11.654;2022-10-13T15:14:41;96474.53;;;17.37;100.00
62510;BME280;48558;48.242;11.654;2022-10-13T15:18:54;96466.72;;;17.52;100.00
62510;BME280;48558;48.242;11.654;2022-10-13T15:23:17;96474.56;;;17.48;100.00
62510;BME280;48558;48.242;11.654;2022-10-13T15:27:29;96472.91;;;17.13;100.00
62510;BME280;48558;48.242;11.654;2022-10-13T15:31:41;96471.13;;;17.10;100.00
62510;BME280;48558;48.242;11.654;2022-10-13T15:35:54;96470.94;;;16.72;100.00
62510;BME280;48558;48.242;11.654;2022-10-13T15:40:07;96475.78;;;16.40;100.00
62510;BME280;48558;48.242;11.654;2022-10-13T15:44:19;96473.56;;;16.13;100.00
62510;BME280;48558;48.242;11.654;2022-10-13T15:48:33;96473.38;;;15.91;100.00
62510;BME280;48558;48.242;11.654;2022-10-13T15:52:45;96471.44;;;15.71;100.00
62510;BME280;48558;48.242;11.654;2022-10-13T15:56:58;96475.25;;;15.48;100.00
62510;BME280;48558;48.242;11.654;2022-10-13T16:01:11;96477.00;;;15.25;100.00
62510;BME280;48558;48.242;11.654;2022-10-13T16:05:24;96467.00;;;15.13;100.00
62510;BME280;48558;48.242;11.654;2022-10-13T16:09:37;96471.06;;;14.92;100.00
62510;BME280;48558;48.242;11.654;2022-10-13T16:13:50;96468.06;;;14.75;100.00
62510;BME280;48558;48.242;11.654;2022-10-13T16:18:03;96446.06;;;14.57;100.00
62510;BME280;48558;48.242;11.654;2022-10-13T16:22:15;96461.38;;;14.47;100.00
62510;BME280;48558;48.242;11.654;2022-10-13T16:26:28;96462.25;;;14.38;100.00
62510;BME280;48558;48.242;11.654;2022-10-13T16:30:44;96458.81;;;14.29;100.00
62510;BME280;48558;48.242;11.654;2022-10-13T16:34:56;96474.84;;;14.19;100.00
62510;BME280;48558;48.242;11.654;2022-10-13T16:39:09;96474.00;;;14.13;100.00
62510;BME280;48558;48.242;11.654;2022-10-13T16:43:21;96478.22;;;14.09;100.00
62510;BME280;48558;48.242;11.654;2022-10-13T16:47:33;96482.63;;;14.01;100.00
62510;BME280;48558;48.242;11.654;2022-10-13T16:51:45;96477.56;;;13.99;100.00
62510;BME280;48558;48.242;11.654;2022-10-13T16:55:58;96477.00;;;13.95;100.00
62510;BME280;48558;48.242;11.654;2022-10-13T17:00:11;96477.72;;;13.96;100.00
62510;BME280;48558;48.242;11.654;2022-10-13T17:04:24;96470.94;;;13.97;100.00
62510;BME280;48558;48.242;11.654;2022-10-13T17:08:37;96481.28;;;13.96;100.00
62510;BME280;48558;48.242;11.654;2022-10-13T17:12:49;96484.44;;;13.89;100.00
62510;BME280;48558;48.242;11.654;2022-10-13T17:17:02;96481.94;;;13.91;100.00
62510;BME280;48558;48.242;11.654;2022-10-13T17:21:16;96477.75;;;13.81;100.00
62510;BME280;48558;48.242;11.654;2022-10-13T17:25:28;96487.13;;;13.69;100.00
62510;BME280;48558;48.242;11.654;2022-10-13T17:29:41;96484.44;;;13.60;100.00
62510;BME280;48558;48.242;11.654;2022-10-13T17:33:53;96490.88;;;13.51;100.00
62510;BME280;48558;48.242;11.654;2022-10-13T17:38:06;96482.91;;;13.44;100.00
62510;BME280;48558;48.242;11.654;2022-10-13T17:42:20;96489.59;;;13.38;100.00
62510;BME280;48558;48.242;11.654;2022-10-13T17:46:32;96482.88;;;13.30;100.00
62510;BME280;48558;48.242;11.654;2022-10-13T17:50:48;96478.28;;;13.27;100.00
62510;BME280;48558;48.242;11.654;2022-10-13T17:55:01;96483.44;;;13.19;100.00
62510;BME280;48558;48.242;11.654;2022-10-13T17:59:15;96477.38;;;13.06;100.00
62510;BME280;48558;48.242;11.654;2022-10-13T18:03:31;96476.38;;;12.94;100.00
62510;BME280;48558;48.242;11.654;2022-10-13T18:07:44;96470.59;;;12.83;100.00
62510;BME280;48558;48.242;11.654;2022-10-13T18:11:56;96476.78;;;12.78;100.00
62510;BME280;48558;48.242;11.654;2022-10-13T18:16:16;96474.38;;;12.71;100.00
62510;BME280;48558;48.242;11.654;2022-10-13T18:20:29;96473.31;;;12.69;100.00
62510;BME280;48558;48.242;11.654;2022-10-13T18:24:41;96477.19;;;12.62;100.00
62510;BME280;48558;48.242;11.654;2022-10-13T18:28:54;96475.25;;;12.54;100.00
62510;BME280;48558;48.242;11.654;2022-10-13T18:33:06;96468.84;;;12.48;100.00
62510;BME280;48558;48.242;11.654;2022-10-13T18:37:19;96469.34;;;12.37;100.00
62510;BME280;48558;48.242;11.654;2022-10-13T18:41:33;96464.63;;;12.29;100.00
62510;BME280;48558;48.242;11.654;2022-10-13T18:45:46;96461.28;;;12.24;100.00
62510;BME280;48558;48.242;11.654;2022-10-13T18:49:58;96463.16;;;12.18;100.00
62510;BME280;48558;48.242;11.654;2022-10-13T18:54:10;96460.44;;;12.09;100.00
62510;BME280;48558;48.242;11.654;2022-10-13T18:58:23;96464.75;;;12.01;100.00
62510;BME280;48558;48.242;11.654;2022-10-13T19:02:35;96459.44;;;11.89;100.00
62510;BME280;48558;48.242;11.654;2022-10-13T19:06:47;96462.38;;;11.76;100.00
62510;BME280;48558;48.242;11.654;2022-10-13T19:11:00;96449.50;;;11.73;100.00
62510;BME280;48558;48.242;11.654;2022-10-13T19:15:12;96455.19;;;11.70;100.00
62510;BME280;48558;48.242;11.654;2022-10-13T19:19:25;96441.19;;;11.73;100.00
62510;BME280;48558;48.242;11.654;2022-10-13T19:23:38;96443.78;;;11.77;100.00
62510;BME280;48558;48.242;11.654;2022-10-13T19:27:52;96443.31;;;11.78;100.00
62510;BME280;48558;48.242;11.654;2022-10-13T19:32:04;96442.25;;;11.76;100.00
62510;BME280;48558;48.242;11.654;2022-10-13T19:36:32;96439.94;;;11.74;100.00
62510;BME280;48558;48.242;11.654;2022-10-13T19:40:46;96444.88;;;11.70;100.00
62510;BME280;48558;48.242;11.654;2022-10-13T19:45:02;96434.28;;;11.69;100.00
62510;BME280;48558;48.242;11.654;2022-10-13T19:49:18;96432.59;;;11.71;100.00
62510;BME280;48558;48.242;11.654;2022-10-13T19:53:30;96431.19;;;11.67;100.00
62510;BME280;48558;48.242;11.654;2022-10-13T19:57:43;96432.75;;;11.68;100.00
62510;BME280;48558;48.242;11.654;2022-10-13T20:01:55;96427.66;;;11.66;100.00
62510;BME280;48558;48.242;11.654;2022-10-13T20:06:08;96434.13;;;11.54;100.00
62510;BME280;48558;48.242;11.654;2022-10-13T20:10:22;96433.38;;;11.44;100.00
62510;BME280;48558;48.242;11.654;2022-10-13T20:14:34;96443.22;;;11.45;100.00
62510;BME280;48558;48.242;11.654;2022-10-13T20:18:55;96432.63;;;11.44;100.00
62510;BME280;48558;48.242;11.654;2022-10-13T20:23:08;96438.31;;;11.40;100.00
62510;BME280;48558;48.242;11.654;2022-10-13T20:27:20;96438.91;;;11.44;100.00
62510;BME280;48558;48.242;11.654;2022-10-13T20:31:33;96437.88;;;11.42;100.00
62510;BME280;48558;48.242;11.654;2022-10-13T20:35:45;96444.31;;;11.39;100.00
62510;BME280;48558;48.242;11.654;2022-10-13T20:39:58;96439.41;;;11.34;100.00
62510;BME280;48558;48.242;11.654;2022-10-13T20:44:10;96439.28;;;11.37;100.00
62510;BME280;48558;48.242;11.654;2022-10-13T20:48:22;96446.78;;;11.46;100.00
62510;BME280;48558;48.242;11.654;2022-10-13T20:52:36;96445.97;;;11.54;100.00
62510;BME280;48558;48.242;11.654;2022-10-13T20:56:49;96447.81;;;11.58;100.00
62510;BME280;48558;48.242;11.654;2022-10-13T21:01:02;96442.88;;;11.62;100.00
62510;BME280;48558;48.242;11.654;2022-10-13T21:05:21;96446.88;;;11.61;100.00
62510;BME280;48558;48.242;11.654;2022-10-13T21:09:34;96439.97;;;11.56;100.00
62510;BME280;48558;48.242;11.654;2022-10-13T21:13:47;96435.81;;;11.61;100.00
62510;BME280;48558;48.242;11.654;2022-10-13T21:18:00;96435.09;;;11.51;100.00
62510;BME280;48558;48.242;11.654;2022-10-13T21:22:12;96445.81;;;11.49;100.00
62510;BME280;48558;48.242;11.654;2022-10-13T21:26:26;96442.91;;;11.52;100.00
62510;BME280;48558;48.242;11.654;2022-10-13T21:30:38;96435.97;;;11.57;100.00
62510;BME280;48558;48.242;11.654;2022-10-13T21:34:50;96431.19;;;11.67;100.00
62510;BME280;48558;48.242;11.654;2022-10-13T21:39:05;96433.03;;;11.70;100.00
62510;BME280;48558;48.242;11.654;2022-10-13T21:43:18;96437.91;;;11.84;100.00
62510;BME280;48558;48.242;11.654;2022-10-13T21:47:32;96440.38;;;11.82;100.00
62510;BME280;48558;48.242;11.654;2022-10-13T21:51:44;96437.91;;;11.84;100.00
62510;BME280;48558;48.242;11.654;2022-10-13T21:56:04;96444.03;;;11.88;100.00
62510;BME280;48558;48.242;11.654;2022-10-13T22:00:18;96462.03;;;11.92;100.00
62510;BME280;48558;48.242;11.654;2022-10-13T22:04:30;96468.16;;;11.96;100.00
62510;BME280;48558;48.242;11.654;2022-10-13T22:08:44;96466.00;;;12.00;100.00
62510;BME280;48558;48.242;11.654;2022-10-13T22:12:56;96480.94;;;12.03;100.00
62510;BME280;48558;48.242;11.654;2022-10-13T22:17:13;96463.81;;;12.04;100.00
62510;BME280;48558;48.242;11.654;2022-10-13T22:21:28;96474.09;;;12.13;100.00
62510;BME280;48558;48.242;11.654;2022-10-13T22:25:44;96470.81;;;12.23;100.00
62510;BME280;48558;48.242;11.654;2022-10-13T22:29:57;96482.50;;;12.28;100.00
62510;BME280;48558;48.242;11.654;2022-10-13T22:34:10;96479.75;;;12.51;100.00
62510;BME280;48558;48.242;11.654;2022-10-13T22:38:23;96484.34;;;12.78;100.00
62510;BME280;48558;48.242;11.654;2022-10-13T22:42:36;96485.41;;;12.80;100.00
62510;BME280;48558;48.242;11.654;2022-10-13T22:46:48;96493.63;;;12.75;100.00
62510;BME280;48558;48.242;11.654;2022-10-13T22:51:02;96495.34;;;12.72;100.00
62510;BME280;48558;48.242;11.654;2022-10-13T22:55:15;96491.97;;;12.68;100.00
62510;BME280;48558;48.242;11.654;2022-10-13T22:59:27;96496.31;;;12.60;100.00
62510;BME280;48558;48.242;11.654;2022-10-13T23:03:40;96496.63;;;12.62;100.00
62510;BME280;48558;48.242;11.654;2022-10-13T23:07:53;96481.28;;;12.52;100.00